Aérodrome :
LOGIN :

S'inscrire | Disclaimer

   EN    FR    IT 

 










Légende :    VFR   VFR Marginal   IFR   IFR Intensif   IFR Très Intensif
Visi : 
Plafond : 
>= 8 km
>= 3000ft
5 à 8 km
1000 à 3000 ft
1500m à 5 km
500 à 1000 ft
800 à 1500m
200 à 500 ft
< 800m
< 200 ft
Symboles :   Orages  Brouillard  Fortes neiges  Fortes précipitations  Vent > 20 kt
SIGMETs :   Divers  Orages  Givrage  Turbulence  Onde Orograph.  Cendres Volcan.






- Altitude de l'aérodrome : 408 ft
- Code IATA : SOB


LHSM - Sarmellek Balaton

DERNIER METAR :
  • 160845Z AUTO 03004KT 350V050 9000 NSC 14/12 Q1016 NOSIG

METARs EXPIRÉS :
  • 160815Z AUTO VRB03KT 8000 NSC 13/12 Q1015 NOSIG
  • 160745Z AUTO 10003KT 060V130 8000 NSC 13/12 Q1015 NOSIG
  • 160715Z AUTO 16004KT 8000 NSC 13/12 Q1015 TEMPO SHRA SCT040TCU
  • 160645Z AUTO VRB02KT 8000 NSC 13/11 Q1015 NOSIG
  • 160615Z AUTO 00000KT 7000 NSC 11/11 Q1015

TAF TAF LHSM
Valide du 16 à 09h jusqu'au 16 à 18h UTC


160815Z 1609/1618 VRB02KT CAVOK
BECMG 1609/1612 02012G24KT
TEMPO 1609/1615 6000 SHRA BKN025TCU BKN080
BECMG 1614/1617 VRB02KT



MET'MAP, la Météo Aéronautique d'un coup d'oeil ! - Copyright ORBIFLY Décembre 2007 - Disclaimer

ORBIFLY MET'MAP TEAM :

Programmation & Développement : Alexandra Zaïnal
Conception & Développement : Baudouin d'Aumeries
Co-Programmation & Développement : Marc-Olivier Méhu
Soutien technique & logistique : Manuel Goepfert

Contact : metmap@orbifly.com




SOURCES & CREDITS :

   NOAA